sensor_id;sensor_type;location;lat;lon;timestamp;P1;durP1;ratioP1;P2;durP2;ratioP2
35530;SDS011;21637;53.352;-6.356;2023-02-28T00:01:11;3.65;;;1.63;;
35530;SDS011;21637;53.352;-6.356;2023-02-28T00:03:38;5.68;;;1.80;;
35530;SDS011;21637;53.352;-6.356;2023-02-28T00:06:04;4.78;;;1.77;;
35530;SDS011;21637;53.352;-6.356;2023-02-28T00:08:31;8.48;;;2.40;;
35530;SDS011;21637;53.352;-6.356;2023-02-28T00:11:00;7.35;;;3.45;;
35530;SDS011;21637;53.352;-6.356;2023-02-28T00:13:30;10.13;;;3.33;;
35530;SDS011;21637;53.352;-6.356;2023-02-28T00:16:00;9.02;;;3.20;;
35530;SDS011;21637;53.352;-6.356;2023-02-28T00:18:26;6.85;;;2.38;;
35530;SDS011;21637;53.352;-6.356;2023-02-28T00:20:52;8.90;;;3.55;;
35530;SDS011;21637;53.352;-6.356;2023-02-28T00:23:18;13.77;;;4.78;;
35530;SDS011;21637;53.352;-6.356;2023-02-28T00:25:43;13.13;;;3.90;;
35530;SDS011;21637;53.352;-6.356;2023-02-28T00:28:10;10.07;;;3.80;;
35530;SDS011;21637;53.352;-6.356;2023-02-28T00:30:35;9.23;;;3.53;;
35530;SDS011;21637;53.352;-6.356;2023-02-28T00:33:01;8.65;;;3.88;;
35530;SDS011;21637;53.352;-6.356;2023-02-28T00:35:27;10.48;;;3.67;;
35530;SDS011;21637;53.352;-6.356;2023-02-28T00:37:52;14.25;;;4.03;;
35530;SDS011;21637;53.352;-6.356;2023-02-28T00:40:18;5.70;;;2.60;;
35530;SDS011;21637;53.352;-6.356;2023-02-28T00:42:44;6.22;;;2.58;;
35530;SDS011;21637;53.352;-6.356;2023-02-28T00:45:09;6.82;;;2.92;;
35530;SDS011;21637;53.352;-6.356;2023-02-28T00:47:35;7.22;;;2.28;;
35530;SDS011;21637;53.352;-6.356;2023-02-28T00:50:03;5.70;;;2.30;;
35530;SDS011;21637;53.352;-6.356;2023-02-28T00:52:29;4.50;;;2.10;;
35530;SDS011;21637;53.352;-6.356;2023-02-28T00:54:55;4.70;;;1.75;;
35530;SDS011;21637;53.352;-6.356;2023-02-28T00:57:20;4.20;;;1.80;;
35530;SDS011;21637;53.352;-6.356;2023-02-28T00:59:46;5.95;;;1.80;;
35530;SDS011;21637;53.352;-6.356;2023-02-28T01:02:12;5.07;;;1.63;;
35530;SDS011;21637;53.352;-6.356;2023-02-28T01:04:38;3.75;;;1.42;;
35530;SDS011;21637;53.352;-6.356;2023-02-28T01:07:03;3.63;;;1.33;;
35530;SDS011;21637;53.352;-6.356;2023-02-28T01:09:29;5.95;;;1.77;;
35530;SDS011;21637;53.352;-6.356;2023-02-28T01:11:55;2.80;;;1.75;;
35530;SDS011;21637;53.352;-6.356;2023-02-28T01:14:20;8.32;;;2.10;;
35530;SDS011;21637;53.352;-6.356;2023-02-28T01:16:46;3.35;;;1.83;;
35530;SDS011;21637;53.352;-6.356;2023-02-28T01:19:12;6.00;;;1.38;;
35530;SDS011;21637;53.352;-6.356;2023-02-28T01:21:38;5.38;;;1.63;;
35530;SDS011;21637;53.352;-6.356;2023-02-28T01:24:04;8.05;;;1.77;;
35530;SDS011;21637;53.352;-6.356;2023-02-28T01:26:30;4.18;;;1.48;;
35530;SDS011;21637;53.352;-6.356;2023-02-28T01:28:56;4.00;;;1.75;;
35530;SDS011;21637;53.352;-6.356;2023-02-28T01:31:22;4.85;;;1.45;;
35530;SDS011;21637;53.352;-6.356;2023-02-28T01:33:48;6.18;;;1.63;;
35530;SDS011;21637;53.352;-6.356;2023-02-28T01:36:18;6.78;;;1.50;;
35530;SDS011;21637;53.352;-6.356;2023-02-28T01:38:46;6.10;;;1.98;;
35530;SDS011;21637;53.352;-6.356;2023-02-28T01:41:25;6.53;;;1.70;;
35530;SDS011;21637;53.352;-6.356;2023-02-28T01:43:54;7.03;;;1.70;;
35530;SDS011;21637;53.352;-6.356;2023-02-28T01:46:22;3.67;;;1.83;;
35530;SDS011;21637;53.352;-6.356;2023-02-28T01:48:52;5.53;;;1.80;;
35530;SDS011;21637;53.352;-6.356;2023-02-28T01:51:46;5.20;;;1.45;;
35530;SDS011;21637;53.352;-6.356;2023-02-28T01:54:26;4.35;;;1.92;;
35530;SDS011;21637;53.352;-6.356;2023-02-28T01:57:01;4.47;;;1.77;;
35530;SDS011;21637;53.352;-6.356;2023-02-28T01:59:39;4.85;;;1.50;;
35530;SDS011;21637;53.352;-6.356;2023-02-28T02:02:17;2.58;;;1.70;;
35530;SDS011;21637;53.352;-6.356;2023-02-28T02:04:55;2.88;;;1.60;;
35530;SDS011;21637;53.352;-6.356;2023-02-28T02:07:26;5.32;;;2.10;;
35530;SDS011;21637;53.352;-6.356;2023-02-28T02:13:04;6.15;;;2.13;;
35530;SDS011;21637;53.352;-6.356;2023-02-28T02:26:43;7.72;;;2.33;;
35530;SDS011;21637;53.352;-6.356;2023-02-28T02:48:03;6.72;;;1.90;;
35530;SDS011;21637;53.352;-6.356;2023-02-28T02:50:42;6.13;;;1.90;;
35530;SDS011;21637;53.352;-6.356;2023-02-28T02:53:11;9.07;;;1.85;;
35530;SDS011;21637;53.352;-6.356;2023-02-28T02:55:41;4.95;;;2.22;;
35530;SDS011;21637;53.352;-6.356;2023-02-28T02:58:13;8.57;;;2.05;;
35530;SDS011;21637;53.352;-6.356;2023-02-28T03:00:45;8.07;;;1.80;;
35530;SDS011;21637;53.352;-6.356;2023-02-28T03:03:15;5.63;;;2.40;;
35530;SDS011;21637;53.352;-6.356;2023-02-28T03:05:46;6.68;;;1.77;;
35530;SDS011;21637;53.352;-6.356;2023-02-28T03:08:14;6.20;;;1.63;;
35530;SDS011;21637;53.352;-6.356;2023-02-28T03:10:42;4.07;;;1.70;;
35530;SDS011;21637;53.352;-6.356;2023-02-28T03:13:18;3.35;;;1.52;;
35530;SDS011;21637;53.352;-6.356;2023-02-28T03:24:29;6.22;;;1.63;;
35530;SDS011;21637;53.352;-6.356;2023-02-28T03:27:21;3.00;;;1.83;;
35530;SDS011;21637;53.352;-6.356;2023-02-28T03:29:56;2.25;;;1.20;;
35530;SDS011;21637;53.352;-6.356;2023-02-28T03:33:08;5.90;;;1.70;;
35530;SDS011;21637;53.352;-6.356;2023-02-28T03:35:23;4.93;;;1.38;;
35530;SDS011;21637;53.352;-6.356;2023-02-28T03:38:00;2.05;;;1.17;;
35530;SDS011;21637;53.352;-6.356;2023-02-28T03:40:39;1.83;;;0.90;;
35530;SDS011;21637;53.352;-6.356;2023-02-28T03:43:12;7.53;;;1.45;;
35530;SDS011;21637;53.352;-6.356;2023-02-28T03:50:41;3.72;;;1.60;;
35530;SDS011;21637;53.352;-6.356;2023-02-28T03:55:42;4.60;;;1.20;;
35530;SDS011;21637;53.352;-6.356;2023-02-28T03:58:42;5.07;;;1.45;;
35530;SDS011;21637;53.352;-6.356;2023-02-28T04:01:41;3.72;;;1.60;;
35530;SDS011;21637;53.352;-6.356;2023-02-28T04:04:09;4.45;;;1.55;;
35530;SDS011;21637;53.352;-6.356;2023-02-28T04:06:36;4.70;;;1.58;;
35530;SDS011;21637;53.352;-6.356;2023-02-28T04:09:03;4.25;;;1.60;;
35530;SDS011;21637;53.352;-6.356;2023-02-28T04:11:34;5.10;;;1.50;;
35530;SDS011;21637;53.352;-6.356;2023-02-28T04:14:17;3.58;;;1.50;;
35530;SDS011;21637;53.352;-6.356;2023-02-28T04:16:43;6.13;;;1.60;;
35530;SDS011;21637;53.352;-6.356;2023-02-28T04:19:10;2.92;;;1.60;;
35530;SDS011;21637;53.352;-6.356;2023-02-28T04:21:39;4.65;;;1.60;;
35530;SDS011;21637;53.352;-6.356;2023-02-28T04:24:11;3.22;;;1.65;;
35530;SDS011;21637;53.352;-6.356;2023-02-28T04:26:40;7.75;;;1.88;;
35530;SDS011;21637;53.352;-6.356;2023-02-28T04:29:09;5.47;;;1.63;;
35530;SDS011;21637;53.352;-6.356;2023-02-28T04:31:36;5.45;;;1.60;;
35530;SDS011;21637;53.352;-6.356;2023-02-28T04:34:02;6.13;;;1.58;;
35530;SDS011;21637;53.352;-6.356;2023-02-28T04:36:28;3.10;;;1.63;;
35530;SDS011;21637;53.352;-6.356;2023-02-28T04:38:54;6.22;;;1.90;;
35530;SDS011;21637;53.352;-6.356;2023-02-28T04:41:19;5.82;;;1.92;;
35530;SDS011;21637;53.352;-6.356;2023-02-28T04:43:46;5.43;;;2.20;;
35530;SDS011;21637;53.352;-6.356;2023-02-28T04:46:11;6.13;;;2.60;;
35530;SDS011;21637;53.352;-6.356;2023-02-28T04:48:38;4.47;;;2.33;;
35530;SDS011;21637;53.352;-6.356;2023-02-28T04:51:05;7.20;;;3.15;;
35530;SDS011;21637;53.352;-6.356;2023-02-28T04:53:33;4.60;;;2.60;;
35530;SDS011;21637;53.352;-6.356;2023-02-28T04:56:00;7.05;;;2.35;;
35530;SDS011;21637;53.352;-6.356;2023-02-28T04:58:26;3.85;;;2.30;;
35530;SDS011;21637;53.352;-6.356;2023-02-28T05:00:53;10.52;;;3.03;;
35530;SDS011;21637;53.352;-6.356;2023-02-28T05:03:19;7.00;;;2.88;;
35530;SDS011;21637;53.352;-6.356;2023-02-28T05:05:47;8.88;;;2.55;;
35530;SDS011;21637;53.352;-6.356;2023-02-28T05:08:12;5.97;;;2.80;;
35530;SDS011;21637;53.352;-6.356;2023-02-28T05:10:39;5.65;;;2.30;;
35530;SDS011;21637;53.352;-6.356;2023-02-28T05:13:05;5.50;;;2.80;;
35530;SDS011;21637;53.352;-6.356;2023-02-28T05:15:30;6.32;;;2.50;;
35530;SDS011;21637;53.352;-6.356;2023-02-28T05:17:56;5.28;;;2.28;;
35530;SDS011;21637;53.352;-6.356;2023-02-28T05:20:22;8.23;;;1.42;;
35530;SDS011;21637;53.352;-6.356;2023-02-28T05:22:47;1.67;;;1.27;;
35530;SDS011;21637;53.352;-6.356;2023-02-28T05:25:16;5.10;;;1.55;;
35530;SDS011;21637;53.352;-6.356;2023-02-28T05:27:44;3.53;;;1.48;;
35530;SDS011;21637;53.352;-6.356;2023-02-28T05:30:10;2.67;;;1.10;;
35530;SDS011;21637;53.352;-6.356;2023-02-28T05:32:37;3.95;;;1.23;;
35530;SDS011;21637;53.352;-6.356;2023-02-28T05:35:04;2.13;;;1.15;;
35530;SDS011;21637;53.352;-6.356;2023-02-28T05:37:30;3.85;;;1.40;;
35530;SDS011;21637;53.352;-6.356;2023-02-28T05:39:57;4.18;;;1.65;;
35530;SDS011;21637;53.352;-6.356;2023-02-28T05:42:23;3.58;;;1.30;;
35530;SDS011;21637;53.352;-6.356;2023-02-28T05:44:48;5.15;;;1.63;;
35530;SDS011;21637;53.352;-6.356;2023-02-28T05:47:15;2.72;;;1.38;;
35530;SDS011;21637;53.352;-6.356;2023-02-28T05:49:41;5.55;;;1.60;;
35530;SDS011;21637;53.352;-6.356;2023-02-28T05:52:07;2.95;;;1.35;;
35530;SDS011;21637;53.352;-6.356;2023-02-28T05:54:33;3.03;;;1.20;;
35530;SDS011;21637;53.352;-6.356;2023-02-28T05:56:59;3.08;;;1.52;;
35530;SDS011;21637;53.352;-6.356;2023-02-28T05:59:25;3.92;;;1.95;;
35530;SDS011;21637;53.352;-6.356;2023-02-28T06:01:50;5.38;;;2.10;;
35530;SDS011;21637;53.352;-6.356;2023-02-28T06:04:19;4.18;;;2.30;;
35530;SDS011;21637;53.352;-6.356;2023-02-28T06:06:49;5.88;;;1.77;;
35530;SDS011;21637;53.352;-6.356;2023-02-28T06:09:15;4.57;;;1.90;;
35530;SDS011;21637;53.352;-6.356;2023-02-28T06:11:42;3.90;;;2.10;;
35530;SDS011;21637;53.352;-6.356;2023-02-28T06:14:10;4.03;;;2.00;;
35530;SDS011;21637;53.352;-6.356;2023-02-28T06:16:42;6.22;;;2.40;;
35530;SDS011;21637;53.352;-6.356;2023-02-28T06:19:08;6.45;;;2.38;;
35530;SDS011;21637;53.352;-6.356;2023-02-28T06:21:35;7.97;;;2.63;;
35530;SDS011;21637;53.352;-6.356;2023-02-28T06:24:01;7.78;;;2.90;;
35530;SDS011;21637;53.352;-6.356;2023-02-28T06:26:27;7.18;;;2.83;;
35530;SDS011;21637;53.352;-6.356;2023-02-28T06:28:53;7.93;;;2.70;;
35530;SDS011;21637;53.352;-6.356;2023-02-28T06:31:19;5.45;;;2.38;;
35530;SDS011;21637;53.352;-6.356;2023-02-28T06:33:46;6.28;;;2.72;;
35530;SDS011;21637;53.352;-6.356;2023-02-28T06:36:12;6.63;;;2.58;;
35530;SDS011;21637;53.352;-6.356;2023-02-28T06:38:39;6.03;;;2.40;;
35530;SDS011;21637;53.352;-6.356;2023-02-28T06:41:06;6.35;;;2.63;;
35530;SDS011;21637;53.352;-6.356;2023-02-28T06:43:34;4.03;;;2.22;;
35530;SDS011;21637;53.352;-6.356;2023-02-28T06:46:03;6.88;;;4.65;;
35530;SDS011;21637;53.352;-6.356;2023-02-28T06:48:31;10.50;;;3.92;;
35530;SDS011;21637;53.352;-6.356;2023-02-28T06:51:13;6.47;;;2.85;;
35530;SDS011;21637;53.352;-6.356;2023-02-28T06:53:42;7.38;;;3.10;;
35530;SDS011;21637;53.352;-6.356;2023-02-28T06:56:12;7.00;;;2.88;;
35530;SDS011;21637;53.352;-6.356;2023-02-28T06:58:39;4.50;;;2.63;;
35530;SDS011;21637;53.352;-6.356;2023-02-28T07:01:06;8.68;;;2.97;;
35530;SDS011;21637;53.352;-6.356;2023-02-28T07:03:32;8.40;;;4.00;;
35530;SDS011;21637;53.352;-6.356;2023-02-28T07:06:00;20.88;;;5.45;;
35530;SDS011;21637;53.352;-6.356;2023-02-28T07:08:26;9.75;;;4.43;;
35530;SDS011;21637;53.352;-6.356;2023-02-28T07:10:52;15.32;;;5.20;;
35530;SDS011;21637;53.352;-6.356;2023-02-28T07:13:19;15.18;;;5.82;;
35530;SDS011;21637;53.352;-6.356;2023-02-28T07:15:52;9.38;;;4.45;;
35530;SDS011;21637;53.352;-6.356;2023-02-28T07:18:22;15.57;;;4.72;;
35530;SDS011;21637;53.352;-6.356;2023-02-28T07:20:48;18.67;;;5.35;;
35530;SDS011;21637;53.352;-6.356;2023-02-28T07:23:14;13.65;;;5.22;;
35530;SDS011;21637;53.352;-6.356;2023-02-28T07:25:39;12.55;;;4.90;;
35530;SDS011;21637;53.352;-6.356;2023-02-28T07:28:05;11.38;;;4.63;;
35530;SDS011;21637;53.352;-6.356;2023-02-28T07:30:31;8.05;;;4.28;;
35530;SDS011;21637;53.352;-6.356;2023-02-28T07:32:56;8.98;;;3.55;;
35530;SDS011;21637;53.352;-6.356;2023-02-28T07:35:22;7.57;;;3.90;;
35530;SDS011;21637;53.352;-6.356;2023-02-28T07:37:48;9.60;;;3.38;;
35530;SDS011;21637;53.352;-6.356;2023-02-28T07:40:14;5.97;;;2.40;;
35530;SDS011;21637;53.352;-6.356;2023-02-28T07:42:40;4.90;;;2.50;;
35530;SDS011;21637;53.352;-6.356;2023-02-28T07:45:07;10.70;;;3.53;;
35530;SDS011;21637;53.352;-6.356;2023-02-28T07:47:36;7.93;;;1.67;;
35530;SDS011;21637;53.352;-6.356;2023-02-28T07:50:04;7.85;;;2.22;;
35530;SDS011;21637;53.352;-6.356;2023-02-28T07:52:31;5.22;;;1.73;;
35530;SDS011;21637;53.352;-6.356;2023-02-28T07:54:57;7.03;;;2.00;;
35530;SDS011;21637;53.352;-6.356;2023-02-28T07:57:23;7.00;;;2.20;;
35530;SDS011;21637;53.352;-6.356;2023-02-28T07:59:49;11.57;;;2.20;;
35530;SDS011;21637;53.352;-6.356;2023-02-28T08:02:15;6.57;;;2.22;;
35530;SDS011;21637;53.352;-6.356;2023-02-28T08:04:42;4.93;;;1.63;;
35530;SDS011;21637;53.352;-6.356;2023-02-28T08:07:08;8.02;;;3.13;;
35530;SDS011;21637;53.352;-6.356;2023-02-28T08:09:40;8.30;;;2.15;;
35530;SDS011;21637;53.352;-6.356;2023-02-28T08:12:06;10.25;;;1.70;;
35530;SDS011;21637;53.352;-6.356;2023-02-28T08:14:33;3.55;;;1.98;;
35530;SDS011;21637;53.352;-6.356;2023-02-28T08:16:59;4.68;;;1.90;;
35530;SDS011;21637;53.352;-6.356;2023-02-28T08:19:25;1.75;;;1.30;;
35530;SDS011;21637;53.352;-6.356;2023-02-28T08:21:51;3.65;;;1.58;;
35530;SDS011;21637;53.352;-6.356;2023-02-28T08:24:17;2.53;;;1.58;;
35530;SDS011;21637;53.352;-6.356;2023-02-28T08:26:42;6.97;;;2.08;;
35530;SDS011;21637;53.352;-6.356;2023-02-28T08:29:08;3.42;;;1.50;;
35530;SDS011;21637;53.352;-6.356;2023-02-28T08:31:34;4.22;;;1.48;;
35530;SDS011;21637;53.352;-6.356;2023-02-28T08:34:04;6.53;;;1.80;;
35530;SDS011;21637;53.352;-6.356;2023-02-28T08:36:34;2.83;;;1.92;;
35530;SDS011;21637;53.352;-6.356;2023-02-28T08:39:00;6.30;;;1.60;;
35530;SDS011;21637;53.352;-6.356;2023-02-28T08:41:26;1.92;;;1.50;;
35530;SDS011;21637;53.352;-6.356;2023-02-28T08:43:52;6.65;;;1.50;;
35530;SDS011;21637;53.352;-6.356;2023-02-28T08:46:18;4.82;;;1.30;;
35530;SDS011;21637;53.352;-6.356;2023-02-28T08:48:44;2.05;;;1.15;;
35530;SDS011;21637;53.352;-6.356;2023-02-28T08:51:12;1.90;;;1.27;;
35530;SDS011;21637;53.352;-6.356;2023-02-28T08:53:41;5.35;;;1.40;;
35530;SDS011;21637;53.352;-6.356;2023-02-28T08:56:08;3.00;;;1.10;;
35530;SDS011;21637;53.352;-6.356;2023-02-28T08:58:35;2.17;;;1.30;;
35530;SDS011;21637;53.352;-6.356;2023-02-28T09:01:07;4.22;;;1.20;;
35530;SDS011;21637;53.352;-6.356;2023-02-28T09:03:47;5.07;;;1.20;;
35530;SDS011;21637;53.352;-6.356;2023-02-28T09:06:14;6.35;;;1.33;;
35530;SDS011;21637;53.352;-6.356;2023-02-28T09:08:41;4.95;;;1.55;;
35530;SDS011;21637;53.352;-6.356;2023-02-28T09:11:07;3.72;;;1.02;;
35530;SDS011;21637;53.352;-6.356;2023-02-28T09:13:33;3.13;;;0.88;;
35530;SDS011;21637;53.352;-6.356;2023-02-28T09:16:00;2.65;;;0.75;;
35530;SDS011;21637;53.352;-6.356;2023-02-28T09:18:29;2.28;;;0.50;;
35530;SDS011;21637;53.352;-6.356;2023-02-28T09:20:57;4.90;;;0.80;;
35530;SDS011;21637;53.352;-6.356;2023-02-28T09:23:23;1.85;;;0.80;;
35530;SDS011;21637;53.352;-6.356;2023-02-28T09:25:49;2.78;;;0.95;;
35530;SDS011;21637;53.352;-6.356;2023-02-28T09:28:17;2.88;;;1.15;;
35530;SDS011;21637;53.352;-6.356;2023-02-28T09:30:44;2.72;;;0.90;;
35530;SDS011;21637;53.352;-6.356;2023-02-28T09:33:12;3.58;;;0.90;;
35530;SDS011;21637;53.352;-6.356;2023-02-28T09:35:38;1.30;;;0.65;;
35530;SDS011;21637;53.352;-6.356;2023-02-28T09:38:04;3.15;;;1.10;;
35530;SDS011;21637;53.352;-6.356;2023-02-28T09:40:34;3.15;;;0.80;;
35530;SDS011;21637;53.352;-6.356;2023-02-28T09:43:09;2.85;;;0.70;;
35530;SDS011;21637;53.352;-6.356;2023-02-28T09:45:40;0.80;;;0.80;;
35530;SDS011;21637;53.352;-6.356;2023-02-28T09:48:12;2.35;;;0.90;;
35530;SDS011;21637;53.352;-6.356;2023-02-28T09:50:50;1.00;;;0.73;;
35530;SDS011;21637;53.352;-6.356;2023-02-28T09:53:28;3.22;;;0.90;;
35530;SDS011;21637;53.352;-6.356;2023-02-28T09:56:12;2.00;;;0.60;;
35530;SDS011;21637;53.352;-6.356;2023-02-28T09:58:47;2.53;;;0.60;;
35530;SDS011;21637;53.352;-6.356;2023-02-28T10:06:54;2.45;;;0.88;;
35530;SDS011;21637;53.352;-6.356;2023-02-28T10:09:30;3.55;;;0.63;;
35530;SDS011;21637;53.352;-6.356;2023-02-28T10:12:03;3.00;;;0.80;;
35530;SDS011;21637;53.352;-6.356;2023-02-28T10:14:32;1.55;;;0.90;;
35530;SDS011;21637;53.352;-6.356;2023-02-28T10:17:01;3.33;;;1.45;;
35530;SDS011;21637;53.352;-6.356;2023-02-28T10:20:10;1.70;;;0.50;;
35530;SDS011;21637;53.352;-6.356;2023-02-28T10:22:37;4.95;;;0.65;;
35530;SDS011;21637;53.352;-6.356;2023-02-28T10:25:18;1.45;;;0.50;;
35530;SDS011;21637;53.352;-6.356;2023-02-28T10:27:47;5.47;;;0.63;;
35530;SDS011;21637;53.352;-6.356;2023-02-28T10:30:14;2.03;;;0.50;;
35530;SDS011;21637;53.352;-6.356;2023-02-28T10:32:40;5.57;;;0.60;;
35530;SDS011;21637;53.352;-6.356;2023-02-28T10:35:18;0.82;;;0.75;;
35530;SDS011;21637;53.352;-6.356;2023-02-28T10:37:50;2.17;;;0.50;;
35530;SDS011;21637;53.352;-6.356;2023-02-28T10:45:34;3.20;;;0.50;;
35530;SDS011;21637;53.352;-6.356;2023-02-28T10:48:06;1.23;;;0.40;;
35530;SDS011;21637;53.352;-6.356;2023-02-28T10:50:53;4.45;;;0.65;;
35530;SDS011;21637;53.352;-6.356;2023-02-28T10:53:24;7.60;;;1.13;;
35530;SDS011;21637;53.352;-6.356;2023-02-28T10:59:22;1.45;;;0.30;;
35530;SDS011;21637;53.352;-6.356;2023-02-28T11:03:49;4.22;;;0.70;;
35530;SDS011;21637;53.352;-6.356;2023-02-28T11:08:47;1.83;;;0.43;;
35530;SDS011;21637;53.352;-6.356;2023-02-28T11:11:16;1.23;;;0.55;;
35530;SDS011;21637;53.352;-6.356;2023-02-28T11:13:44;1.02;;;0.43;;
35530;SDS011;21637;53.352;-6.356;2023-02-28T11:16:12;1.92;;;0.30;;
35530;SDS011;21637;53.352;-6.356;2023-02-28T11:18:54;1.95;;;0.30;;
35530;SDS011;21637;53.352;-6.356;2023-02-28T11:21:22;2.50;;;1.00;;
35530;SDS011;21637;53.352;-6.356;2023-02-28T11:24:05;0.90;;;0.38;;
35530;SDS011;21637;53.352;-6.356;2023-02-28T11:26:47;1.58;;;0.57;;
35530;SDS011;21637;53.352;-6.356;2023-02-28T11:31:57;1.23;;;0.40;;
35530;SDS011;21637;53.352;-6.356;2023-02-28T11:34:38;1.67;;;0.52;;
35530;SDS011;21637;53.352;-6.356;2023-02-28T11:37:08;1.75;;;0.40;;
35530;SDS011;21637;53.352;-6.356;2023-02-28T11:39:43;1.58;;;0.50;;
35530;SDS011;21637;53.352;-6.356;2023-02-28T11:42:20;1.92;;;0.40;;
35530;SDS011;21637;53.352;-6.356;2023-02-28T11:48:05;0.90;;;0.55;;
35530;SDS011;21637;53.352;-6.356;2023-02-28T11:53:37;1.33;;;0.60;;
35530;SDS011;21637;53.352;-6.356;2023-02-28T11:56:30;3.22;;;0.70;;
35530;SDS011;21637;53.352;-6.356;2023-02-28T12:07:57;2.67;;;0.50;;
35530;SDS011;21637;53.352;-6.356;2023-02-28T12:10:29;3.47;;;1.05;;
35530;SDS011;21637;53.352;-6.356;2023-02-28T12:18:56;3.72;;;1.05;;
35530;SDS011;21637;53.352;-6.356;2023-02-28T12:21:31;3.03;;;0.77;;
35530;SDS011;21637;53.352;-6.356;2023-02-28T12:24:58;3.78;;;1.00;;
35530;SDS011;21637;53.352;-6.356;2023-02-28T12:27:21;3.80;;;1.55;;
35530;SDS011;21637;53.352;-6.356;2023-02-28T12:29:54;5.15;;;1.60;;
35530;SDS011;21637;53.352;-6.356;2023-02-28T12:32:38;1.55;;;1.30;;
35530;SDS011;21637;53.352;-6.356;2023-02-28T12:37:35;2.88;;;1.92;;
35530;SDS011;21637;53.352;-6.356;2023-02-28T12:40:19;3.20;;;0.90;;
35530;SDS011;21637;53.352;-6.356;2023-02-28T12:42:48;1.80;;;1.33;;
35530;SDS011;21637;53.352;-6.356;2023-02-28T12:47:55;2.97;;;1.30;;
35530;SDS011;21637;53.352;-6.356;2023-02-28T12:50:28;3.20;;;1.02;;
35530;SDS011;21637;53.352;-6.356;2023-02-28T12:53:02;2.65;;;0.90;;
35530;SDS011;21637;53.352;-6.356;2023-02-28T12:58:28;4.53;;;1.13;;
35530;SDS011;21637;53.352;-6.356;2023-02-28T13:01:17;2.55;;;0.90;;
35530;SDS011;21637;53.352;-6.356;2023-02-28T13:09:35;3.28;;;0.70;;
35530;SDS011;21637;53.352;-6.356;2023-02-28T13:12:05;1.17;;;0.60;;
35530;SDS011;21637;53.352;-6.356;2023-02-28T13:14:39;2.67;;;1.02;;
35530;SDS011;21637;53.352;-6.356;2023-02-28T13:17:17;2.88;;;0.80;;
35530;SDS011;21637;53.352;-6.356;2023-02-28T13:24:52;2.05;;;0.90;;
35530;SDS011;21637;53.352;-6.356;2023-02-28T13:27:23;1.38;;;0.90;;
35530;SDS011;21637;53.352;-6.356;2023-02-28T13:29:57;2.75;;;1.05;;
35530;SDS011;21637;53.352;-6.356;2023-02-28T13:42:32;3.85;;;1.13;;
35530;SDS011;21637;53.352;-6.356;2023-02-28T14:06:09;3.13;;;0.70;;
35530;SDS011;21637;53.352;-6.356;2023-02-28T14:08:43;4.38;;;0.93;;
35530;SDS011;21637;53.352;-6.356;2023-02-28T14:11:26;4.15;;;1.20;;
35530;SDS011;21637;53.352;-6.356;2023-02-28T14:13:57;2.88;;;1.13;;
35530;SDS011;21637;53.352;-6.356;2023-02-28T14:16:24;2.97;;;1.45;;
35530;SDS011;21637;53.352;-6.356;2023-02-28T14:21:39;3.97;;;1.38;;
35530;SDS011;21637;53.352;-6.356;2023-02-28T14:32:30;1.10;;;0.95;;
35530;SDS011;21637;53.352;-6.356;2023-02-28T14:38:04;5.25;;;1.23;;
35530;SDS011;21637;53.352;-6.356;2023-02-28T14:40:32;3.47;;;1.27;;
35530;SDS011;21637;53.352;-6.356;2023-02-28T14:43:04;2.83;;;1.50;;
35530;SDS011;21637;53.352;-6.356;2023-02-28T14:45:43;4.85;;;1.85;;
35530;SDS011;21637;53.352;-6.356;2023-02-28T14:48:14;1.52;;;0.93;;
35530;SDS011;21637;53.352;-6.356;2023-02-28T14:50:47;4.68;;;1.13;;
35530;SDS011;21637;53.352;-6.356;2023-02-28T14:53:18;1.20;;;1.10;;
35530;SDS011;21637;53.352;-6.356;2023-02-28T14:55:47;5.63;;;1.40;;
35530;SDS011;21637;53.352;-6.356;2023-02-28T14:58:22;5.60;;;1.33;;
35530;SDS011;21637;53.352;-6.356;2023-02-28T15:00:51;5.03;;;1.30;;
35530;SDS011;21637;53.352;-6.356;2023-02-28T15:03:23;3.78;;;1.25;;
35530;SDS011;21637;53.352;-6.356;2023-02-28T15:05:56;3.95;;;1.33;;
35530;SDS011;21637;53.352;-6.356;2023-02-28T15:08:24;2.85;;;1.50;;
35530;SDS011;21637;53.352;-6.356;2023-02-28T15:10:53;2.13;;;1.20;;
35530;SDS011;21637;53.352;-6.356;2023-02-28T15:13:42;5.25;;;1.73;;
35530;SDS011;21637;53.352;-6.356;2023-02-28T15:16:11;2.65;;;1.20;;
35530;SDS011;21637;53.352;-6.356;2023-02-28T15:18:48;3.95;;;1.92;;
35530;SDS011;21637;53.352;-6.356;2023-02-28T15:21:17;5.93;;;1.80;;
35530;SDS011;21637;53.352;-6.356;2023-02-28T15:23:50;2.08;;;1.10;;
35530;SDS011;21637;53.352;-6.356;2023-02-28T15:26:23;7.00;;;1.55;;
35530;SDS011;21637;53.352;-6.356;2023-02-28T15:29:01;5.32;;;1.20;;
35530;SDS011;21637;53.352;-6.356;2023-02-28T15:31:40;5.95;;;1.30;;
35530;SDS011;21637;53.352;-6.356;2023-02-28T15:34:15;4.82;;;1.40;;
35530;SDS011;21637;53.352;-6.356;2023-02-28T15:40:04;3.55;;;1.48;;
35530;SDS011;21637;53.352;-6.356;2023-02-28T15:42:30;4.82;;;1.30;;
35530;SDS011;21637;53.352;-6.356;2023-02-28T15:44:56;2.05;;;0.80;;
35530;SDS011;21637;53.352;-6.356;2023-02-28T15:47:26;1.85;;;1.20;;
35530;SDS011;21637;53.352;-6.356;2023-02-28T15:49:58;5.13;;;1.83;;
35530;SDS011;21637;53.352;-6.356;2023-02-28T15:52:39;5.65;;;1.48;;
35530;SDS011;21637;53.352;-6.356;2023-02-28T15:55:19;8.23;;;1.45;;
35530;SDS011;21637;53.352;-6.356;2023-02-28T15:57:48;3.72;;;2.55;;
35530;SDS011;21637;53.352;-6.356;2023-02-28T16:00:21;7.30;;;2.80;;
35530;SDS011;21637;53.352;-6.356;2023-02-28T16:02:48;2.22;;;0.90;;
35530;SDS011;21637;53.352;-6.356;2023-02-28T16:05:25;2.55;;;1.67;;
35530;SDS011;21637;53.352;-6.356;2023-02-28T16:08:00;3.88;;;1.30;;
35530;SDS011;21637;53.352;-6.356;2023-02-28T16:10:36;1.40;;;1.25;;
35530;SDS011;21637;53.352;-6.356;2023-02-28T16:13:02;4.85;;;3.30;;
35530;SDS011;21637;53.352;-6.356;2023-02-28T16:15:28;4.75;;;1.70;;
35530;SDS011;21637;53.352;-6.356;2023-02-28T16:17:56;5.30;;;2.42;;
35530;SDS011;21637;53.352;-6.356;2023-02-28T16:20:27;4.15;;;1.25;;
35530;SDS011;21637;53.352;-6.356;2023-02-28T16:22:54;3.78;;;1.40;;
35530;SDS011;21637;53.352;-6.356;2023-02-28T16:25:23;1.15;;;0.98;;
35530;SDS011;21637;53.352;-6.356;2023-02-28T16:28:08;3.45;;;1.30;;
35530;SDS011;21637;53.352;-6.356;2023-02-28T16:30:51;2.55;;;1.55;;
35530;SDS011;21637;53.352;-6.356;2023-02-28T16:33:17;8.27;;;5.32;;
35530;SDS011;21637;53.352;-6.356;2023-02-28T16:35:43;4.57;;;3.88;;
35530;SDS011;21637;53.352;-6.356;2023-02-28T16:38:08;4.80;;;2.03;;
35530;SDS011;21637;53.352;-6.356;2023-02-28T16:40:35;2.72;;;1.80;;
35530;SDS011;21637;53.352;-6.356;2023-02-28T16:43:04;3.97;;;1.92;;
35530;SDS011;21637;53.352;-6.356;2023-02-28T16:45:33;3.47;;;1.95;;
35530;SDS011;21637;53.352;-6.356;2023-02-28T16:47:59;7.57;;;3.80;;
35530;SDS011;21637;53.352;-6.356;2023-02-28T16:50:28;4.68;;;2.85;;
35530;SDS011;21637;53.352;-6.356;2023-02-28T16:52:55;7.55;;;2.80;;
35530;SDS011;21637;53.352;-6.356;2023-02-28T16:55:22;6.22;;;3.40;;
35530;SDS011;21637;53.352;-6.356;2023-02-28T16:57:51;5.68;;;2.17;;
35530;SDS011;21637;53.352;-6.356;2023-02-28T17:00:20;3.28;;;1.90;;
35530;SDS011;21637;53.352;-6.356;2023-02-28T17:02:46;8.80;;;4.07;;
35530;SDS011;21637;53.352;-6.356;2023-02-28T17:05:12;3.85;;;1.58;;
35530;SDS011;21637;53.352;-6.356;2023-02-28T17:07:40;4.32;;;2.47;;
35530;SDS011;21637;53.352;-6.356;2023-02-28T17:10:17;4.78;;;3.30;;
35530;SDS011;21637;53.352;-6.356;2023-02-28T17:12:44;3.83;;;2.80;;
35530;SDS011;21637;53.352;-6.356;2023-02-28T17:15:11;3.00;;;2.47;;
35530;SDS011;21637;53.352;-6.356;2023-02-28T17:17:38;5.60;;;3.95;;
35530;SDS011;21637;53.352;-6.356;2023-02-28T17:20:05;7.43;;;4.20;;
35530;SDS011;21637;53.352;-6.356;2023-02-28T17:22:32;4.22;;;3.33;;
35530;SDS011;21637;53.352;-6.356;2023-02-28T17:24:57;4.22;;;2.70;;
35530;SDS011;21637;53.352;-6.356;2023-02-28T17:27:24;10.60;;;5.68;;
35530;SDS011;21637;53.352;-6.356;2023-02-28T17:29:50;5.50;;;4.13;;